CheckWX is a tool to help pilots better visualize weather data.  It is not intended as a substitute for an official pre-flight weather briefing.

06:08:45 UTC

EFKK METAR
Kruunupyy Airport
Kokkola / Kruunupyy, Finland
Current

19 mins ago

EFKK 230550Z AUTO 20008KT CAVOK 10/03 Q1021
Observed
Apr-23 @ 05:50 UTC
Wind
  • 200° at 8 KTS
Visibility
10,000+ meters
Flight Rules
VFR
Cloud Levels
  • Clear skies
Temperature
10°C / 50°F
Dewpoint
C / 37°F
Humidity
62%
Altimeter
30.15" Hg
Pressure
1020.92 hPa
Previous

49 mins ago

EFKK 230520Z AUTO 19010KT CAVOK 09/03 Q1021
Observed
Apr-23 @ 05:20 UTC
Wind
  • 190° at 10 KTS
Visibility
10,000+ meters
Flight Rules
VFR
Cloud Levels
  • Clear skies
Temperature
C / 48°F
Dewpoint
C / 37°F
Humidity
66%
Altimeter
30.15" Hg
Pressure
1020.92 hPa
Previous

1 hour ago

EFKK 230450Z AUTO 19010KT CAVOK 08/03 Q1021
Observed
Apr-23 @ 04:50 UTC
Wind
  • 190° at 10 KTS
Visibility
10,000+ meters
Flight Rules
VFR
Cloud Levels
  • Clear skies
Temperature
C / 46°F
Dewpoint
C / 37°F
Humidity
71%
Altimeter
30.15" Hg
Pressure
1020.92 hPa